スィクティフカル の空港の天気 - METARとTAF

Syktyvkar ( UUYY / SCW ) - ロシア スィクティフカル
飛行場実況気象(Metar)
観測時間11/30 20:30 MSK (11/30 17:30 UTC)
風向・風速西北西 1m/s
視程10km以上
天気現象弱い雪
全天の4割程度の雲 雲底高度 210m
気温-4℃
湿度93%
気圧1040hPa
METARUUYY 301730Z 30001MPS 9999 -SN SCT007 M04/M05 Q1040 R36/590333 NOSIG RMK QFE770/1027
過去の天気等 Google飛行場航空写真 Wunderground天気予報

過去48時間のMETAR

飛行場予報(TAF)
発表時間: 11/30 20:00 MSK (11/30 17:00 UTC)
予報対象時間: 30日21時 MSK ~ 1日21時 MSK
風向・風速北西 3m/s
視程6000m
天気現象弱い雪
全天の8割程度の雲 雲底高度 210m
30日21時 MSK ~ 1日12時 MSK に一時的に
視程300m
天気現象しゅう雪 氷雨 氷霧
全天の8割程度の雲 雲底高度 60m
全天の8割程度の積乱雲 雲底高度 490m
1日12時 MSK ~ 1日21時 MSK に一時的に
風向・風速東 3m/s
天気現象弱い氷霧雨
全天の4割程度の雲 雲底高度 120m
全天の8割程度の雲 雲底高度 490m
TAF UUYY 301700Z 3018/0118 32003MPS 6000 -SN BKN007
TEMPO 3018/0109 0300 SHSN FZRA FZFG BKN002 BKN016CB
TEMPO 0109/0118 09003MPS -FZDZ SCT004 BKN016